www.cux-wetter.de
Wetterdaten: Woche 23.03.09 - 29.03.09 (KW13)
Datum Zeit Temp. A. Feuchte A. Luftdruck Regen Wind Richtung Sonnenschein Solar Taupunkt Windchill Windben
23.03.2009 00:00 6,2 C 93 % 1012,6 hPa 0,0 l/m 35,9 km/h (5 Bft) NW 0,00 h 0 W/m 5,2 C -5,9 C 35,9 km/h (5 Bft)
23.03.2009 01:00 6,2 C 90 % 1011,7 hPa 0,0 l/m 34,2 km/h (5 Bft) NW 0,00 h 0 W/m 4,7 C -5,6 C 34,2 km/h (5 Bft)
23.03.2009 02:00 6,0 C 90 % 1011,5 hPa 0,0 l/m 36,3 km/h (5 Bft) NW 0,00 h 0 W/m 4,5 C -6,3 C 36,3 km/h (5 Bft)
23.03.2009 03:00 6,0 C 90 % 1010,5 hPa 0,0 l/m 33,2 km/h (5 Bft) NW 0,00 h 0 W/m 4,5 C -5,6 C 33,2 km/h (5 Bft)
23.03.2009 04:00 6,0 C 90 % 1009,3 hPa 0,0 l/m 30,1 km/h (5 Bft) W-NW 0,00 h 0 W/m 4,5 C -4,9 C 30,1 km/h (5 Bft)
23.03.2009 05:00 6,2 C 93 % 1008,0 hPa 0,0 l/m 32,2 km/h (5 Bft) W-NW 0,00 h 0 W/m 5,1 C -5,1 C 32,2 km/h (5 Bft)
23.03.2009 06:00 6,1 C 95 % 1006,3 hPa 0,0 l/m 35,4 km/h (5 Bft) W-NW 0,00 h 0 W/m 5,4 C -6,0 C 35,4 km/h (5 Bft)
23.03.2009 07:00 6,0 C 96 % 1004,9 hPa 0,0 l/m 39,1 km/h (6 Bft) W-NW 0,00 h 0 W/m 5,3 C -6,9 C 39,1 km/h (6 Bft)
23.03.2009 08:00 5,9 C 96 % 1003,2 hPa 0,0 l/m 41,2 km/h (6 Bft) W-NW 0,00 h 0 W/m 5,3 C -7,4 C 41,2 km/h (6 Bft)
23.03.2009 09:00 6,0 C 96 % 1001,3 hPa 0,0 l/m 42,8 km/h (6 Bft) W-NW 0,00 h 0 W/m 5,4 C -7,4 C 42,8 km/h (6 Bft)
23.03.2009 10:00 6,2 C 96 % 999,8 hPa 0,0 l/m 48,0 km/h (6 Bft) W-NW 0,00 h 0 W/m 5,6 C -7,8 C 48,0 km/h (6 Bft)
23.03.2009 11:00 6,2 C 96 % 997,9 hPa 0,0 l/m 42,7 km/h (6 Bft) W-NW 0,00 h 0 W/m 5,6 C -7,2 C 42,7 km/h (6 Bft)
23.03.2009 12:00 6,1 C 97 % 996,1 hPa 0,0 l/m 43,0 km/h (6 Bft) W-NW 0,00 h 0 W/m 5,7 C -7,3 C 43,0 km/h (6 Bft)
23.03.2009 13:00 6,1 C 97 % 994,8 hPa 0,0 l/m 40,9 km/h (6 Bft) NW 0,00 h 0 W/m 5,7 C -7,0 C 40,9 km/h (6 Bft)
23.03.2009 14:00 6,0 C 96 % 994,4 hPa 0,0 l/m 35,2 km/h (5 Bft) NW 0,00 h 0 W/m 5,5 C -6,0 C 35,2 km/h (5 Bft)
23.03.2009 15:00 5,7 C 95 % 994,5 hPa 0,0 l/m 35,7 km/h (5 Bft) NW 0,00 h 0 W/m 4,9 C -6,7 C 35,7 km/h (5 Bft)
23.03.2009 16:00 5,8 C 91 % 994,5 hPa 0,3 l/m 40,1 km/h (6 Bft) NW 0,00 h 0 W/m 4,5 C -7,2 C 40,1 km/h (6 Bft)
23.03.2009 17:00 5,4 C 84 % 994,5 hPa 0,0 l/m 40,9 km/h (6 Bft) NW 0,00 h 0 W/m 2,9 C -8,0 C 40,9 km/h (6 Bft)
23.03.2009 18:00 3,9 C 88 % 994,5 hPa 0,6 l/m 37,1 km/h (5 Bft) NW 0,00 h 0 W/m 2,0 C -9,5 C 37,1 km/h (5 Bft)
23.03.2009 19:00 3,4 C 92 % 994,5 hPa 0,6 l/m 34,9 km/h (5 Bft) NW 0,00 h 0 W/m 2,3 C -9,7 C 34,9 km/h (5 Bft)
23.03.2009 20:00 3,9 C 91 % 993,8 hPa 0,0 l/m 31,3 km/h (5 Bft) NW 0,00 h 0 W/m 2,5 C -8,3 C 31,3 km/h (5 Bft)
23.03.2009 21:00 3,1 C 93 % 993,5 hPa 0,0 l/m 31,1 km/h (5 Bft) NW 0,00 h 0 W/m 2,1 C -9,2 C 31,1 km/h (5 Bft)
23.03.2009 22:00 3,2 C 93 % 993,5 hPa 0,0 l/m 30,4 km/h (5 Bft) N 0,00 h 0 W/m 2,1 C -8,9 C 30,4 km/h (5 Bft)
23.03.2009 23:00 3,5 C 92 % 993,8 hPa 0,0 l/m 28,0 km/h (5 Bft) N 0,00 h 0 W/m 2,4 C -7,8 C 28,0 km/h (5 Bft)
24.03.2009 00:00 3,4 C 92 % 994,5 hPa 0,0 l/m 29,5 km/h (5 Bft) N-NO 0,00 h 0 W/m 2,2 C -8,4 C 29,5 km/h (5 Bft)
24.03.2009 01:00 3,2 C 94 % 994,8 hPa 0,0 l/m 28,4 km/h (5 Bft) N 0,00 h 0 W/m 2,3 C -8,4 C 28,4 km/h (5 Bft)
24.03.2009 02:00 3,7 C 91 % 995,5 hPa 0,0 l/m 30,5 km/h (5 Bft) N 0,00 h 0 W/m 2,5 C -8,2 C 30,5 km/h (5 Bft)
24.03.2009 03:00 3,9 C 90 % 995,8 hPa 0,0 l/m 30,9 km/h (5 Bft) N-NO 0,00 h 0 W/m 2,5 C -8,1 C 30,9 km/h (5 Bft)
24.03.2009 04:00 4,1 C 91 % 996,5 hPa 0,0 l/m 29,6 km/h (5 Bft) N 0,00 h 0 W/m 2,7 C -7,5 C 29,6 km/h (5 Bft)
24.03.2009 05:00 3,8 C 90 % 997,3 hPa 0,0 l/m 27,9 km/h (5 Bft) N-NO 0,00 h 0 W/m 2,3 C -7,3 C 27,9 km/h (5 Bft)
24.03.2009 06:00 3,5 C 87 % 998,3 hPa 0,0 l/m 22,1 km/h (4 Bft) N-NO 0,00 h 0 W/m 1,5 C -5,9 C 22,1 km/h (4 Bft)
24.03.2009 07:00 3,3 C 87 % 999,3 hPa 0,0 l/m 18,7 km/h (3 Bft) N-NO 0,00 h 0 W/m 1,3 C -4,7 C 18,7 km/h (3 Bft)
24.03.2009 08:00 3,5 C 87 % 1000,4 hPa 0,0 l/m 23,7 km/h (4 Bft) NO 0,00 h 0 W/m 1,5 C -6,3 C 23,7 km/h (4 Bft)
24.03.2009 09:00 2,3 C 88 % 1001,9 hPa 0,0 l/m 27,8 km/h (5 Bft) NO 0,00 h 0 W/m 0,5 C -9,3 C 27,8 km/h (5 Bft)
24.03.2009 10:00 2,8 C 82 % 1003,3 hPa 0,0 l/m 28,2 km/h (5 Bft) NO 0,00 h 0 W/m 0,1 C -8,9 C 28,2 km/h (5 Bft)
24.03.2009 11:00 3,4 C 72 % 1004,3 hPa 0,0 l/m 27,5 km/h (5 Bft) N-NO 0,00 h 0 W/m -1,2 C -7,8 C 27,5 km/h (5 Bft)
24.03.2009 12:00 4,5 C 66 % 1005,3 hPa 0,0 l/m 24,2 km/h (4 Bft) N-NO 0,00 h 0 W/m -1,4 C -5,2 C 24,2 km/h (4 Bft)
24.03.2009 13:00 6,5 C 60 % 1005,8 hPa 0,9 l/m 26,4 km/h (4 Bft) NO 0,00 h 0 W/m -0,7 C -3,2 C 26,4 km/h (4 Bft)
24.03.2009 14:00 6,7 C 57 % 1006,5 hPa 0,0 l/m 31,2 km/h (5 Bft) N-NO 0,00 h 0 W/m -1,2 C -4,2 C 31,2 km/h (5 Bft)
24.03.2009 15:00 6,2 C 57 % 1007,1 hPa 0,0 l/m 34,4 km/h (5 Bft) N-NO 0,00 h 0 W/m -1,8 C -5,6 C 34,4 km/h (5 Bft)
24.03.2009 16:00 4,4 C 59 % 1007,5 hPa 0,0 l/m 30,5 km/h (5 Bft) N 0,00 h 0 W/m -2,9 C -7,4 C 30,5 km/h (5 Bft)
24.03.2009 17:00 3,6 C 62 % 1007,5 hPa 0,0 l/m 26,8 km/h (4 Bft) N 0,00 h 0 W/m -3,0 C -7,4 C 26,8 km/h (4 Bft)
24.03.2009 18:00 3,0 C 64 % 1007,6 hPa 0,0 l/m 25,5 km/h (4 Bft) N 0,00 h 0 W/m -3,2 C -7,8 C 25,5 km/h (4 Bft)
24.03.2009 19:00 2,5 C 65 % 1008,3 hPa 0,0 l/m 24,3 km/h (4 Bft) N 0,00 h 0 W/m -3,4 C -7,9 C 24,3 km/h (4 Bft)
24.03.2009 20:00 2,4 C 69 % 1008,5 hPa 0,0 l/m 17,7 km/h (3 Bft) N 0,00 h 0 W/m -2,7 C -5,4 C 17,7 km/h (3 Bft)
24.03.2009 21:00 2,3 C 71 % 1007,6 hPa 0,0 l/m 14,8 km/h (3 Bft) NW 0,00 h 0 W/m -2,5 C -4,1 C 14,8 km/h (3 Bft)
24.03.2009 22:00 2,1 C 73 % 1007,5 hPa 0,0 l/m 9,6 km/h (2 Bft) W 0,00 h 0 W/m -2,2 C -0,7 C 9,6 km/h (2 Bft)
24.03.2009 23:00 2,0 C 75 % 1006,5 hPa 0,0 l/m 10,1 km/h (2 Bft) W-SW 0,00 h 0 W/m -1,9 C -1,1 C 10,1 km/h (2 Bft)
25.03.2009 00:00 1,5 C 77 % 1005,9 hPa 0,0 l/m 7,8 km/h (2 Bft) SW 0,00 h 0 W/m -2,0 C -0,2 C 7,8 km/h (2 Bft)
25.03.2009 01:00 1,4 C 79 % 1004,9 hPa 0,0 l/m 14,0 km/h (3 Bft) SW 0,00 h 0 W/m -1,8 C -4,5 C 14,0 km/h (3 Bft)
25.03.2009 02:00 1,3 C 79 % 1003,8 hPa 0,0 l/m 16,9 km/h (3 Bft) S-SW 0,00 h 0 W/m -1,9 C -6,4 C 16,9 km/h (3 Bft)
25.03.2009 03:00 1,5 C 80 % 1002,2 hPa 0,0 l/m 17,6 km/h (3 Bft) S-SW 0,00 h 0 W/m -1,5 C -6,5 C 17,6 km/h (3 Bft)
25.03.2009 04:00 1,3 C 84 % 1000,9 hPa 0,0 l/m 16,3 km/h (3 Bft) S 0,00 h 0 W/m -1,1 C -6,0 C 16,3 km/h (3 Bft)
25.03.2009 05:00 1,2 C 87 % 999,8 hPa 0,0 l/m 15,2 km/h (3 Bft) S 0,00 h 0 W/m -0,8 C -5,5 C 15,2 km/h (3 Bft)
25.03.2009 06:00 1,2 C 87 % 998,7 hPa 0,0 l/m 15,6 km/h (3 Bft) S 0,00 h 0 W/m -0,7 C -5,8 C 15,6 km/h (3 Bft)
25.03.2009 07:00 1,1 C 88 % 997,2 hPa 0,0 l/m 15,4 km/h (3 Bft) S 0,00 h 0 W/m -0,6 C -5,8 C 15,4 km/h (3 Bft)
25.03.2009 08:00 0,7 C 91 % 996,0 hPa 0,0 l/m 17,7 km/h (3 Bft) S 0,00 h 0 W/m -0,6 C -7,5 C 17,7 km/h (3 Bft)
25.03.2009 09:00 0,6 C 93 % 994,8 hPa 0,0 l/m 20,7 km/h (4 Bft) S 0,00 h 0 W/m -0,4 C -9,1 C 20,7 km/h (4 Bft)
25.03.2009 10:00 0,8 C 94 % 994,2 hPa 0,0 l/m 22,7 km/h (4 Bft) S 0,00 h 0 W/m -0,0 C -9,6 C 22,7 km/h (4 Bft)
25.03.2009 11:00 1,1 C 95 % 993,5 hPa 0,0 l/m 24,8 km/h (4 Bft) S-SO 0,00 h 0 W/m 0,3 C -10,2 C 24,8 km/h (4 Bft)
25.03.2009 12:00 1,4 C 95 % 992,5 hPa 0,0 l/m 23,2 km/h (4 Bft) S 0,00 h 0 W/m 0,7 C -9,1 C 23,2 km/h (4 Bft)
25.03.2009 13:00 1,5 C 96 % 992,5 hPa 0,0 l/m 25,1 km/h (4 Bft) S 0,00 h 0 W/m 0,9 C -9,5 C 25,1 km/h (4 Bft)
25.03.2009 14:00 1,3 C 96 % 992,5 hPa 0,0 l/m 21,6 km/h (4 Bft) S-SO 0,00 h 0 W/m 0,7 C -8,5 C 21,6 km/h (4 Bft)
25.03.2009 15:00 1,3 C 96 % 992,5 hPa 0,0 l/m 17,3 km/h (3 Bft) S-SO 0,00 h 0 W/m 0,7 C -6,7 C 17,3 km/h (3 Bft)
25.03.2009 16:00 1,7 C 96 % 993,1 hPa 0,0 l/m 14,8 km/h (3 Bft) S-SO 0,00 h 0 W/m 1,1 C -4,8 C 14,8 km/h (3 Bft)
25.03.2009 17:00 1,8 C 96 % 993,5 hPa 0,0 l/m 13,2 km/h (3 Bft) S-SO 0,00 h 0 W/m 1,2 C -3,6 C 13,2 km/h (3 Bft)
25.03.2009 18:00 1,9 C 96 % 994,3 hPa 0,0 l/m 11,2 km/h (2 Bft) SO 0,00 h 0 W/m 1,3 C -2,2 C 11,2 km/h (2 Bft)
25.03.2009 19:00 1,9 C 96 % 995,1 hPa 0,0 l/m 10,4 km/h (2 Bft) SO 0,00 h 0 W/m 1,3 C -1,6 C 10,4 km/h (2 Bft)
25.03.2009 20:00 1,9 C 96 % 995,8 hPa 0,0 l/m 8,2 km/h (2 Bft) SO 0,00 h 0 W/m 1,4 C -0,1 C 8,2 km/h (2 Bft)
25.03.2009 21:00 2,1 C 96 % 996,5 hPa 0,0 l/m 9,4 km/h (2 Bft) SO 0,00 h 0 W/m 1,5 C -0,6 C 9,4 km/h (2 Bft)
25.03.2009 22:00 2,2 C 96 % 997,2 hPa 0,0 l/m 5,5 km/h (2 Bft) SO 0,00 h 0 W/m 1,7 C 1,4 C 5,5 km/h (2 Bft)
25.03.2009 23:00 2,3 C 96 % 997,5 hPa 0,0 l/m 3,1 km/h (1 Bft) SO 0,00 h 0 W/m 1,7 C 2,3 C 3,1 km/h (1 Bft)
26.03.2009 00:00 2,3 C 96 % 998,1 hPa 0,0 l/m 3,1 km/h (1 Bft) SO 0,00 h 0 W/m 1,8 C 2,0 C 3,1 km/h (1 Bft)
26.03.2009 01:00 2,4 C 97 % 998,6 hPa 0,0 l/m 5,5 km/h (2 Bft) S-SO 0,00 h 0 W/m 2,0 C 2,2 C 5,5 km/h (2 Bft)
26.03.2009 02:00 2,5 C 97 % 999,5 hPa 0,0 l/m 7,1 km/h (2 Bft) S-SO 0,00 h 0 W/m 2,1 C 1,5 C 7,1 km/h (2 Bft)
26.03.2009 03:00 2,6 C 97 % 999,5 hPa 0,0 l/m 8,5 km/h (2 Bft) S-SO 0,00 h 0 W/m 2,2 C 0,7 C 8,5 km/h (2 Bft)
26.03.2009 04:00 2,5 C 97 % 999,5 hPa 0,0 l/m 9,7 km/h (2 Bft) S-SO 0,00 h 0 W/m 2,1 C -0,3 C 9,7 km/h (2 Bft)
26.03.2009 05:00 2,5 C 97 % 999,5 hPa 0,0 l/m 10,6 km/h (2 Bft) S-SO 0,00 h 0 W/m 2,0 C -1,1 C 10,6 km/h (2 Bft)
26.03.2009 06:00 2,4 C 97 % 999,5 hPa 0,0 l/m 10,3 km/h (2 Bft) S 0,00 h 0 W/m 2,0 C -1,0 C 10,3 km/h (2 Bft)
26.03.2009 07:00 2,8 C 97 % 999,5 hPa 0,0 l/m 8,6 km/h (2 Bft) S 0,00 h 0 W/m 2,3 C 0,7 C 8,6 km/h (2 Bft)
26.03.2009 08:00 3,7 C 97 % 999,5 hPa 0,0 l/m 9,8 km/h (2 Bft) W-SW 0,00 h 0 W/m 3,3 C 1,2 C 9,8 km/h (2 Bft)
26.03.2009 09:00 4,8 C 97 % 999,5 hPa 0,0 l/m 20,4 km/h (4 Bft) W-SW 0,00 h 0 W/m 4,4 C -3,5 C 20,4 km/h (4 Bft)
26.03.2009 10:00 6,0 C 94 % 999,3 hPa 0,0 l/m 24,2 km/h (4 Bft) W-SW 0,00 h 0 W/m 5,1 C -3,3 C 24,2 km/h (4 Bft)
26.03.2009 11:00 6,6 C 93 % 998,5 hPa 0,0 l/m 18,7 km/h (3 Bft) W-SW 0,00 h 0 W/m 5,5 C -0,5 C 18,7 km/h (3 Bft)
26.03.2009 12:00 6,9 C 91 % 998,1 hPa 0,0 l/m 27,0 km/h (5 Bft) W-SW 0,00 h 0 W/m 5,5 C -2,8 C 27,0 km/h (5 Bft)
26.03.2009 13:00 6,8 C 91 % 997,5 hPa 0,0 l/m 27,1 km/h (5 Bft) W-SW 0,00 h 0 W/m 5,5 C -3,0 C 27,1 km/h (5 Bft)
26.03.2009 14:00 6,9 C 93 % 996,7 hPa 0,0 l/m 21,9 km/h (4 Bft) W-SW 0,00 h 0 W/m 5,8 C -1,3 C 21,9 km/h (4 Bft)
26.03.2009 15:00 6,5 C 93 % 996,0 hPa 0,3 l/m 27,7 km/h (5 Bft) W-SW 0,00 h 0 W/m 5,5 C -3,5 C 27,7 km/h (5 Bft)
26.03.2009 16:00 6,2 C 94 % 994,8 hPa 0,0 l/m 20,2 km/h (4 Bft) SW 0,00 h 0 W/m 5,3 C -1,7 C 20,2 km/h (4 Bft)
26.03.2009 17:00 6,0 C 95 % 993,6 hPa 0,0 l/m 23,3 km/h (4 Bft) S-SW 0,00 h 0 W/m 5,2 C -3,0 C 23,3 km/h (4 Bft)
26.03.2009 18:00 5,8 C 95 % 992,4 hPa 0,0 l/m 23,8 km/h (4 Bft) SW 0,00 h 0 W/m 5,1 C -3,4 C 23,8 km/h (4 Bft)
26.03.2009 19:00 6,1 C 96 % 991,6 hPa 0,0 l/m 23,9 km/h (4 Bft) SW 0,00 h 0 W/m 5,6 C -3,0 C 23,9 km/h (4 Bft)
26.03.2009 20:00 6,4 C 97 % 991,0 hPa 0,0 l/m 23,3 km/h (4 Bft) W-SW 0,00 h 0 W/m 6,0 C -2,4 C 23,3 km/h (4 Bft)
26.03.2009 21:00 7,0 C 97 % 990,5 hPa 0,0 l/m 24,7 km/h (4 Bft) W-SW 0,00 h 0 W/m 6,5 C -2,1 C 24,7 km/h (4 Bft)
26.03.2009 22:00 6,3 C 97 % 990,8 hPa 0,0 l/m 21,3 km/h (4 Bft) W-NW 0,00 h 0 W/m 5,9 C -1,6 C 21,3 km/h (4 Bft)
26.03.2009 23:00 5,7 C 97 % 991,3 hPa 0,0 l/m 16,5 km/h (3 Bft) W 0,00 h 0 W/m 5,3 C -0,7 C 16,5 km/h (3 Bft)
27.03.2009 00:00 5,4 C 98 % 991,5 hPa 0,0 l/m 16,4 km/h (3 Bft) W 0,00 h 0 W/m 5,1 C -1,0 C 16,4 km/h (3 Bft)
27.03.2009 01:00 4,9 C 98 % 991,5 hPa 0,0 l/m 17,2 km/h (3 Bft) W 0,00 h 0 W/m 4,5 C -2,1 C 17,2 km/h (3 Bft)
27.03.2009 02:00 4,7 C 97 % 991,5 hPa 0,0 l/m 19,6 km/h (3 Bft) W 0,00 h 0 W/m 4,2 C -3,4 C 19,6 km/h (3 Bft)
27.03.2009 03:00 4,6 C 97 % 991,5 hPa 0,0 l/m 24,8 km/h (4 Bft) W 0,00 h 0 W/m 4,1 C -5,3 C 24,8 km/h (4 Bft)
27.03.2009 04:00 4,6 C 96 % 991,5 hPa 0,0 l/m 27,3 km/h (5 Bft) W 0,00 h 0 W/m 4,0 C -6,2 C 27,3 km/h (5 Bft)
27.03.2009 05:00 4,3 C 94 % 991,5 hPa 0,0 l/m 28,3 km/h (5 Bft) W-SW 0,00 h 0 W/m 3,5 C -6,9 C 28,3 km/h (5 Bft)
27.03.2009 06:00 4,0 C 94 % 991,5 hPa 0,0 l/m 30,0 km/h (5 Bft) W-SW 0,00 h 0 W/m 3,0 C -7,8 C 30,0 km/h (5 Bft)
27.03.2009 07:00 4,4 C 93 % 991,5 hPa 0,0 l/m 29,0 km/h (5 Bft) W 0,00 h 0 W/m 3,4 C -6,8 C 29,0 km/h (5 Bft)
27.03.2009 08:00 4,7 C 90 % 991,5 hPa 0,0 l/m 24,3 km/h (4 Bft) W 0,00 h 0 W/m 3,2 C -5,0 C 24,3 km/h (4 Bft)
27.03.2009 09:00 5,7 C 87 % 991,5 hPa 0,0 l/m 33,4 km/h (5 Bft) W-SW 0,00 h 0 W/m 3,7 C -6,2 C 33,4 km/h (5 Bft)
27.03.2009 10:00 5,8 C 87 % 991,9 hPa 0,0 l/m 34,5 km/h (5 Bft) W 0,00 h 0 W/m 3,8 C -6,3 C 34,5 km/h (5 Bft)
27.03.2009 11:00 5,8 C 90 % 992,5 hPa 0,0 l/m 28,5 km/h (5 Bft) W 0,00 h 0 W/m 4,3 C -4,7 C 28,5 km/h (5 Bft)
27.03.2009 12:00 7,4 C 82 % 992,5 hPa 0,0 l/m 27,9 km/h (5 Bft) W 0,00 h 0 W/m 4,5 C -2,4 C 27,9 km/h (5 Bft)
27.03.2009 13:00 7,5 C 78 % 992,5 hPa 0,0 l/m 29,2 km/h (5 Bft) W-SW 0,00 h 0 W/m 4,0 C -2,6 C 29,2 km/h (5 Bft)
27.03.2009 14:00 8,8 C 71 % 992,5 hPa 0,0 l/m 26,6 km/h (4 Bft) W 0,00 h 0 W/m 3,9 C -0,2 C 26,6 km/h (4 Bft)
27.03.2009 15:00 8,5 C 70 % 992,5 hPa 0,0 l/m 26,9 km/h (4 Bft) W 0,00 h 0 W/m 3,3 C -0,7 C 26,9 km/h (4 Bft)
27.03.2009 16:00 7,3 C 77 % 993,2 hPa 0,6 l/m 24,8 km/h (4 Bft) W-NW 0,00 h 0 W/m 3,6 C -1,7 C 24,8 km/h (4 Bft)
27.03.2009 17:00 6,2 C 81 % 993,5 hPa 0,0 l/m 28,4 km/h (5 Bft) W 0,00 h 0 W/m 3,2 C -4,3 C 28,4 km/h (5 Bft)
27.03.2009 18:00 5,1 C 88 % 993,5 hPa 0,0 l/m 27,1 km/h (5 Bft) W 0,00 h 0 W/m 3,3 C -5,4 C 27,1 km/h (5 Bft)
27.03.2009 19:00 4,5 C 91 % 993,8 hPa 0,0 l/m 16,5 km/h (3 Bft) W-SW 0,00 h 0 W/m 3,1 C -2,2 C 16,5 km/h (3 Bft)
27.03.2009 20:00 4,1 C 91 % 993,5 hPa 0,0 l/m 11,8 km/h (2 Bft) W-SW 0,00 h 0 W/m 2,8 C -0,1 C 11,8 km/h (2 Bft)
27.03.2009 21:00 3,7 C 91 % 993,5 hPa 0,0 l/m 10,8 km/h (2 Bft) SW 0,00 h 0 W/m 2,4 C 0,1 C 10,8 km/h (2 Bft)
27.03.2009 22:00 3,8 C 91 % 993,6 hPa 0,0 l/m 14,6 km/h (3 Bft) SW 0,00 h 0 W/m 2,4 C -2,1 C 14,6 km/h (3 Bft)
27.03.2009 23:00 4,3 C 89 % 994,3 hPa 0,0 l/m 19,1 km/h (3 Bft) W-SW 0,00 h 0 W/m 2,7 C -3,6 C 19,1 km/h (3 Bft)
28.03.2009 00:00 4,3 C 89 % 994,0 hPa 0,0 l/m 17,1 km/h (3 Bft) SW 0,00 h 0 W/m 2,7 C -2,7 C 17,1 km/h (3 Bft)
28.03.2009 01:00 3,8 C 90 % 993,5 hPa 0,0 l/m 15,3 km/h (3 Bft) SW 0,00 h 0 W/m 2,2 C -2,6 C 15,3 km/h (3 Bft)
28.03.2009 02:00 3,8 C 91 % 993,5 hPa 0,0 l/m 17,2 km/h (3 Bft) SW 0,00 h 0 W/m 2,4 C -3,3 C 17,2 km/h (3 Bft)
28.03.2009 03:00 3,9 C 92 % 993,5 hPa 0,0 l/m 11,9 km/h (2 Bft) S 0,00 h 0 W/m 2,8 C -0,3 C 11,9 km/h (2 Bft)
28.03.2009 04:00 3,9 C 92 % 993,2 hPa 0,0 l/m 12,7 km/h (3 Bft) S 0,00 h 0 W/m 2,7 C -0,9 C 12,7 km/h (3 Bft)
28.03.2009 05:00 3,8 C 93 % 993,1 hPa 0,0 l/m 10,3 km/h (2 Bft) S-SW 0,00 h 0 W/m 2,8 C 0,6 C 10,3 km/h (2 Bft)
28.03.2009 06:00 3,5 C 93 % 992,5 hPa 0,0 l/m 8,3 km/h (2 Bft) S 0,00 h 0 W/m 2,5 C 1,9 C 8,3 km/h (2 Bft)
28.03.2009 07:00 3,6 C 93 % 992,5 hPa 0,0 l/m 10,7 km/h (2 Bft) S 0,00 h 0 W/m 2,6 C 0,0 C 10,7 km/h (2 Bft)
28.03.2009 08:00 4,6 C 94 % 992,5 hPa 0,9 l/m 12,7 km/h (3 Bft) S 0,00 h 0 W/m 3,6 C -0,1 C 12,7 km/h (3 Bft)
28.03.2009 09:00 6,5 C 91 % 992,5 hPa 1,5 l/m 13,2 km/h (3 Bft) S 0,00 h 0 W/m 5,2 C 1,9 C 13,2 km/h (3 Bft)
28.03.2009 10:00 7,6 C 87 % 992,5 hPa 0,0 l/m 15,3 km/h (3 Bft) S 0,00 h 0 W/m 5,5 C 2,3 C 15,3 km/h (3 Bft)
28.03.2009 11:00 7,9 C 84 % 992,5 hPa 0,0 l/m 12,1 km/h (2 Bft) SO 0,00 h 0 W/m 5,4 C 4,1 C 12,1 km/h (2 Bft)
28.03.2009 12:00 7,7 C 84 % 992,5 hPa 0,0 l/m 15,5 km/h (3 Bft) S-SO 0,00 h 0 W/m 5,1 C 2,3 C 15,5 km/h (3 Bft)
28.03.2009 13:00 7,0 C 88 % 991,9 hPa 0,3 l/m 12,0 km/h (2 Bft) SO 0,00 h 0 W/m 5,2 C 3,2 C 12,0 km/h (2 Bft)
28.03.2009 14:00 7,1 C 90 % 991,5 hPa 0,3 l/m 9,4 km/h (2 Bft) O-NO 0,00 h 0 W/m 5,6 C 4,7 C 9,4 km/h (2 Bft)
28.03.2009 15:00 6,6 C 91 % 991,5 hPa 4,2 l/m 7,7 km/h (2 Bft) O 0,00 h 0 W/m 5,2 C 4,6 C 7,7 km/h (2 Bft)
28.03.2009 16:00 6,1 C 93 % 991,5 hPa 3,0 l/m 7,8 km/h (2 Bft) NO 0,00 h 0 W/m 4,9 C 4,3 C 7,8 km/h (2 Bft)
28.03.2009 17:00 5,8 C 94 % 991,5 hPa 1,8 l/m 11,7 km/h (2 Bft) NO 0,00 h 0 W/m 4,9 C 1,9 C 11,7 km/h (2 Bft)
28.03.2009 18:00 5,6 C 95 % 992,1 hPa 0,3 l/m 15,8 km/h (3 Bft) N-NO 0,00 h 0 W/m 4,8 C -0,3 C 15,8 km/h (3 Bft)
28.03.2009 19:00 5,4 C 96 % 993,2 hPa 0,3 l/m 17,8 km/h (3 Bft) N-NO 0,00 h 0 W/m 4,8 C -1,6 C 17,8 km/h (3 Bft)
28.03.2009 20:00 4,9 C 96 % 994,6 hPa 0,3 l/m 18,9 km/h (3 Bft) N 0,00 h 0 W/m 4,3 C -2,8 C 18,9 km/h (3 Bft)
28.03.2009 21:00 4,7 C 96 % 995,7 hPa 0,6 l/m 15,6 km/h (3 Bft) NW 0,00 h 0 W/m 4,2 C -1,5 C 15,6 km/h (3 Bft)
28.03.2009 22:00 4,7 C 96 % 996,7 hPa 0,3 l/m 10,6 km/h (2 Bft) NW 0,00 h 0 W/m 4,1 C 1,4 C 10,6 km/h (2 Bft)
28.03.2009 23:00 4,9 C 97 % 997,5 hPa 0,3 l/m 17,7 km/h (3 Bft) N 0,00 h 0 W/m 4,4 C -2,2 C 17,7 km/h (3 Bft)
29.03.2009 00:00 4,9 C 97 % 998,5 hPa 0,3 l/m 17,4 km/h (3 Bft) N 0,00 h 0 W/m 4,5 C -2,1 C 17,4 km/h (3 Bft)
29.03.2009 01:00 5,2 C 97 % 999,0 hPa 0,6 l/m 16,6 km/h (3 Bft) N 0,00 h 0 W/m 4,7 C -1,5 C 16,6 km/h (3 Bft)
29.03.2009 02:00 5,1 C 97 % 999,5 hPa 0,0 l/m 18,8 km/h (3 Bft) N 0,00 h 0 W/m 4,7 C -2,6 C 18,8 km/h (3 Bft)
29.03.2009 03:00 5,0 C 97 % 999,5 hPa 0,0 l/m 11,9 km/h (2 Bft) N-NW 0,00 h 0 W/m 4,6 C 1,0 C 11,9 km/h (2 Bft)
29.03.2009 04:00 4,9 C 97 % 1000,5 hPa 0,0 l/m 14,6 km/h (3 Bft) N 0,00 h 0 W/m 4,5 C -0,8 C 14,6 km/h (3 Bft)
29.03.2009 05:00 4,7 C 97 % 1001,2 hPa 0,0 l/m 12,3 km/h (2 Bft) N-NW 0,00 h 0 W/m 4,3 C 0,3 C 12,3 km/h (2 Bft)
29.03.2009 06:00 4,7 C 97 % 1001,8 hPa 0,0 l/m 15,0 km/h (3 Bft) N 0,00 h 0 W/m 4,2 C -1,2 C 15,0 km/h (3 Bft)
29.03.2009 07:00 4,5 C 97 % 1002,5 hPa 0,0 l/m 19,6 km/h (3 Bft) N 0,00 h 0 W/m 4,1 C -3,5 C 19,6 km/h (3 Bft)
29.03.2009 08:00 4,4 C 97 % 1003,4 hPa 0,0 l/m 20,4 km/h (4 Bft) N 0,00 h 0 W/m 4,0 C -4,0 C 20,4 km/h (4 Bft)
29.03.2009 09:00 4,9 C 95 % 1004,4 hPa 0,0 l/m 16,5 km/h (3 Bft) N 0,00 h 0 W/m 4,1 C -1,7 C 16,5 km/h (3 Bft)
29.03.2009 10:00 5,8 C 93 % 1005,5 hPa 0,0 l/m 12,9 km/h (3 Bft) N 0,00 h 0 W/m 4,8 C 1,2 C 12,9 km/h (3 Bft)
29.03.2009 11:00 6,3 C 90 % 1006,3 hPa 0,0 l/m 11,8 km/h (2 Bft) NW 0,00 h 0 W/m 4,8 C 2,5 C 11,8 km/h (2 Bft)
29.03.2009 12:00 6,7 C 86 % 1006,8 hPa 0,0 l/m 12,1 km/h (2 Bft) N 0,00 h 0 W/m 4,5 C 2,7 C 12,1 km/h (2 Bft)
29.03.2009 13:00 6,8 C 86 % 1007,5 hPa 0,0 l/m 12,3 km/h (2 Bft) N 0,00 h 0 W/m 4,7 C 2,8 C 12,3 km/h (2 Bft)
29.03.2009 14:00 9,2 C 80 % 1007,5 hPa 0,0 l/m 10,0 km/h (2 Bft) N 0,00 h 0 W/m 5,9 C 6,8 C 10,0 km/h (2 Bft)
29.03.2009 15:00 10,7 C 75 % 1007,8 hPa 0,0 l/m 10,1 km/h (2 Bft) N 0,00 h 0 W/m 6,5 C 8,4 C 10,1 km/h (2 Bft)
29.03.2009 16:00 9,8 C 75 % 1008,5 hPa 0,0 l/m 12,3 km/h (2 Bft) NW 0,00 h 0 W/m 5,6 C 6,3 C 12,3 km/h (2 Bft)
29.03.2009 17:00 7,6 C 82 % 1009,2 hPa 0,0 l/m 14,8 km/h (3 Bft) NW 0,00 h 0 W/m 4,7 C 2,4 C 14,8 km/h (3 Bft)
29.03.2009 18:00 7,1 C 82 % 1009,5 hPa 0,0 l/m 14,2 km/h (3 Bft) NW 0,00 h 0 W/m 4,2 C 2,0 C 14,2 km/h (3 Bft)
29.03.2009 19:00 6,0 C 86 % 1010,3 hPa 0,0 l/m 14,7 km/h (3 Bft) NW 0,00 h 0 W/m 3,7 C 0,4 C 14,7 km/h (3 Bft)
29.03.2009 20:00 5,1 C 88 % 1010,8 hPa 0,0 l/m 10,1 km/h (2 Bft) W-NW 0,00 h 0 W/m 3,3 C 2,1 C 10,1 km/h (2 Bft)
29.03.2009 21:00 4,9 C 91 % 1011,8 hPa 0,0 l/m 12,7 km/h (3 Bft) W-NW 0,00 h 0 W/m 3,5 C 0,3 C 12,7 km/h (3 Bft)
29.03.2009 22:00 5,1 C 90 % 1012,5 hPa 0,0 l/m 12,7 km/h (3 Bft) W-NW 0,00 h 0 W/m 3,5 C 0,5 C 12,7 km/h (3 Bft)
29.03.2009 23:00 4,7 C 91 % 1012,5 hPa 0,0 l/m 14,0 km/h (3 Bft) W-NW 0,00 h 0 W/m 3,3 C -0,7 C 14,0 km/h (3 Bft)
Min-Datum _ 25.03.09 24.03.09 26.03.09 - 28.03.09 - - - 24.03.09 25.03.09 28.03.09
_ Min-Zeit 09:09 14:14 20:30 - 16:04 - - - 19:04 13:29 16:04
Minimum _ 0,6 C 55 % 990,5 hPa - 0,0 km/h (0 Bft) - - - -3,6 C -13,1 C 0,0 km/h (0 Bft)
Max-Datum _ 29.03.09 26.03.09 23.03.09 28.03.09 23.03.09 - 23.03.09 23.03.09 29.03.09 29.03.09 23.03.09
_ Max-Zeit 15:44 09:39 00:04 15:44 10:59 - 00:04 00:04 15:14 15:14 10:59
Maximum _ 11,1 C 98 % 1013,5 hPa 4,2 l/m 57,3 km/h
W-NW (7 Bft)
- 0,00 h 0 W/m 7,0 C 10,0 C 57,3 km/h
W-NW (7 Bft)
Durchschnitt _ 4,6 C 89 % 998,3 hPa #18,3 l/m 20,8 km/h (4 Bft) N #0 min. 0 W/m 2,9 C -3,1 C 20,8 km/h (4 Bft)
copyright by Holger Just